Time;durP1;ratioP1;P1;durP2;ratioP2;P2;SDS_P1;SDS_P2;PMS_P1;PMS_P2;Temp;Humidity;BMP_temperature;BMP_pressure;BME280_temperature;BME280_humidity;BME280_pressure;Samples;Min_cycle;Max_cycle;Signal;HPM_P1;HPM_P2
2023/12/18 00:01:13;;;;;;;4.93;3.03;;;;;;;;;;5071701;28;20049;-25
2023/12/18 00:03:40;;;;;;;5.35;3.08;;;18.90;71.50;;;;;;5071569;28;20105;-29
2023/12/18 00:06:07;;;;;;;5.40;3.15;;;18.70;63.20;;;;;;5070872;28;20053;-27
2023/12/18 00:08:36;;;;;;;3.83;2.92;;;18.80;71.20;;;;;;5054510;28;20072;-30
2023/12/18 00:11:03;;;;;;;4.68;2.90;;;;;;;;;;5051647;28;20122;-26
2023/12/18 00:13:31;;;;;;;5.47;2.72;;;18.60;71.40;;;;;;5051615;28;20049;-25
2023/12/18 00:15:57;;;;;;;4.40;2.80;;;18.30;70.90;;;;;;5051472;28;20399;-27
2023/12/18 00:18:24;;;;;;;4.82;2.83;;;17.80;54.60;;;;;;5051710;28;20445;-25
2023/12/18 00:20:52;;;;;;;4.93;2.92;;;;;;;;;;5051462;28;20099;-26
2023/12/18 00:23:19;;;;;;;4.13;2.88;;;19.90;72.20;;;;;;5069930;28;21049;-24
2023/12/18 00:25:47;;;;;;;6.20;3.00;;;18.90;60.30;;;;;;5071313;28;20555;-29
2023/12/18 00:28:14;;;;;;;5.38;2.85;;;;;;;;;;5071385;28;20399;-26
2023/12/18 00:30:41;;;;;;;6.03;2.95;;;18.30;71.20;;;;;;5071717;28;20634;-29
2023/12/18 00:33:08;;;;;;;4.65;3.05;;;18.20;66.10;;;;;;5075623;28;20494;-26
2023/12/18 00:35:35;;;;;;;4.75;3.05;;;19.60;52.50;;;;;;5075658;28;20049;-27
2023/12/18 00:38:02;;;;;;;5.55;2.80;;;;;;;;;;5073888;28;20040;-26
2023/12/18 00:40:29;;;;;;;4.80;2.92;;;18.90;71.40;;;;;;5055416;28;20102;-25
2023/12/18 00:42:57;;;;;;;6.22;2.95;;;18.70;71.80;;;;;;5055079;28;20060;-23
2023/12/18 00:45:24;;;;;;;5.63;3.10;;;19.00;61.80;;;;;;5054967;28;20555;-26
2023/12/18 00:47:52;;;;;;;6.20;3.78;;;18.90;62.50;;;;;;5055154;28;20633;-25
2023/12/18 00:50:19;;;;;;;5.57;2.88;;;19.00;72.00;;;;;;5055366;28;20424;-25
2023/12/18 00:52:46;;;;;;;6.20;3.03;;;;;;;;;;5055275;28;20544;-28
2023/12/18 00:55:13;;;;;;;4.85;3.00;;;17.80;71.30;;;;;;5056713;28;20480;-27
2023/12/18 00:57:40;;;;;;;4.70;3.17;;;19.00;72.00;;;;;;5075153;28;20106;-25
2023/12/18 01:00:10;;;;;;;4.93;3.03;;;19.00;53.10;;;;;;5075065;28;20048;-28
2023/12/18 01:02:37;;;;;;;5.22;3.13;;;19.00;71.70;;;;;;5072497;28;20440;-24
2023/12/18 01:05:05;;;;;;;5.22;3.08;;;19.70;72.40;;;;;;5054792;28;20167;-30
2023/12/18 01:07:32;;;;;;;6.82;2.70;;;18.90;71.70;;;;;;5060352;28;20044;-29
2023/12/18 01:09:59;;;;;;;4.07;2.80;;;;;;;;;;5074806;28;20048;-27
2023/12/18 01:12:26;;;;;;;4.60;2.90;;;18.50;71.90;;;;;;5073703;28;20040;-23
2023/12/18 01:14:53;;;;;;;5.97;3.10;;;;;;;;;;5066238;28;20099;-25
2023/12/18 01:17:21;;;;;;;3.88;3.05;;;19.70;54.70;;;;;;5054800;28;20110;-27
2023/12/18 01:19:48;;;;;;;4.57;2.63;;;19.10;59.50;;;;;;5055039;28;20099;-27
2023/12/18 01:22:15;;;;;;;6.60;2.80;;;17.80;54.90;;;;;;5054782;28;20060;-26
2023/12/18 01:24:42;;;;;;;4.32;2.78;;;18.90;71.70;;;;;;5054381;28;20107;-27
2023/12/18 01:27:09;;;;;;;4.78;2.80;;;18.30;71.70;;;;;;5054836;28;20110;-24
2023/12/18 01:29:39;;;;;;;4.63;2.75;;;18.60;51.40;;;;;;5054658;28;20045;-25
2023/12/18 01:32:07;;;;;;;5.85;3.00;;;18.40;63.70;;;;;;5054617;28;20045;-28
2023/12/18 01:34:35;;;;;;;4.43;2.83;;;18.50;63.50;;;;;;5054248;28;20124;-27
2023/12/18 01:37:03;;;;;;;4.70;2.60;;;18.50;69.30;;;;;;5063335;28;20044;-25
2023/12/18 01:39:31;;;;;;;5.35;2.90;;;18.80;71.70;;;;;;5074451;28;20049;-24
2023/12/18 01:41:58;;;;;;;4.95;2.80;;;;;;;;;;5074143;28;20502;-27
2023/12/18 01:44:25;;;;;;;4.88;2.88;;;18.50;66.60;;;;;;5073352;28;20460;-25
2023/12/18 01:46:52;;;;;;;5.20;2.53;;;;;;;;;;5062092;28;20502;-26
2023/12/18 01:49:19;;;;;;;4.50;2.75;;;18.10;71.40;;;;;;5053963;28;20453;-24
2023/12/18 01:51:47;;;;;;;5.78;2.85;;;18.40;71.90;;;;;;5054006;28;20130;-31
2023/12/18 01:54:14;;;;;;;3.95;2.67;;;;;;;;;;5054278;28;20049;-27
2023/12/18 01:56:41;;;;;;;5.70;2.70;;;18.70;71.70;;;;;;5053882;28;20056;-29
2023/12/18 01:59:09;;;;;;;5.47;2.88;;;;;;;;;;5058572;28;20063;-29
2023/12/18 02:01:36;;;;;;;4.47;2.83;;;18.70;61.80;;;;;;5073949;28;20068;-25
2023/12/18 02:04:02;;;;;;;4.45;2.70;;;18.80;62.90;;;;;;5068739;28;20110;-29
2023/12/18 02:06:29;;;;;;;6.30;2.75;;;18.50;71.80;;;;;;5073813;28;20387;-24
2023/12/18 02:08:58;;;;;;;5.40;2.90;;;18.50;51.60;;;;;;5056445;28;20495;-28
2023/12/18 02:11:25;;;;;;;4.53;2.85;;;;;;;;;;5062650;28;20127;-27
2023/12/18 02:13:52;;;;;;;4.65;2.92;;;18.90;72.40;;;;;;5073676;28;20053;-28
2023/12/18 02:16:19;;;;;;;4.13;2.55;;;;;;;;;;5073219;28;20460;-26
2023/12/18 02:18:46;;;;;;;5.22;2.95;;;18.50;72.00;;;;;;5073586;28;20394;-29
2023/12/18 02:21:13;;;;;;;4.00;2.60;;;;;;;;;;5058503;28;20493;-26
2023/12/18 02:23:41;;;;;;;6.13;2.60;;;18.50;72.20;;;;;;5073647;28;20044;-24
2023/12/18 02:26:08;;;;;;;4.60;2.58;;;18.30;61.50;;;;;;5072079;28;20098;-29
2023/12/18 02:28:35;;;;;;;3.90;2.53;;;;;;;;;;5060069;28;20041;-27
2023/12/18 02:31:03;;;;;;;4.47;2.38;;;19.50;72.70;;;;;;5053146;28;20091;-30
2023/12/18 02:33:29;;;;;;;4.78;2.72;;;18.30;52.00;;;;;;5053578;28;20387;-31
2023/12/18 02:35:57;;;;;;;5.88;2.50;;;18.70;72.50;;;;;;5053053;28;20494;-29
2023/12/18 02:38:24;;;;;;;4.22;2.50;;;18.70;72.00;;;;;;5055603;28;20053;-31
2023/12/18 02:40:52;;;;;;;5.07;2.53;;;18.30;51.60;;;;;;5053173;28;20118;-29
2023/12/18 02:43:19;;;;;;;3.97;2.70;;;17.20;71.20;;;;;;5052993;28;20103;-32
2023/12/18 02:45:46;;;;;;;3.47;2.38;;;17.90;63.00;;;;;;5052920;28;20053;-24
2023/12/18 02:48:13;;;;;;;5.15;2.67;;;18.20;71.90;;;;;;5052887;28;20456;-24
2023/12/18 02:50:40;;;;;;;4.22;2.50;;;;;;;;;;5052931;28;20049;-26
2023/12/18 02:53:06;;;;;;;4.10;2.40;;;19.10;72.60;;;;;;5054138;28;20516;-28
2023/12/18 02:55:33;;;;;;;4.15;2.22;;;18.20;72.10;;;;;;5058213;28;20105;-27
2023/12/18 02:58:02;;;;;;;3.95;2.60;;;18.00;65.20;;;;;;5072939;28;20049;-26
2023/12/18 03:00:29;;;;;;;5.00;2.42;;;;;;;;;;5072446;28;20056;-28
2023/12/18 03:02:56;;;;;;;4.50;2.85;;;;;;;;;;5072927;28;20053;-28
2023/12/18 03:05:23;;;;;;;4.57;2.55;;;18.20;55.60;;;;;;5072470;28;20103;-29
2023/12/18 03:07:50;;;;;;;6.53;2.67;;;19.40;72.50;;;;;;5064546;28;20048;-32
2023/12/18 03:10:17;;;;;;;4.43;2.40;;;18.30;69.40;;;;;;5056631;28;20044;-26
2023/12/18 03:12:44;;;;;;;3.63;2.05;;;17.90;64.50;;;;;;5052624;28;20053;-25
2023/12/18 03:15:12;;;;;;;5.97;2.67;;;18.10;53.30;;;;;;5052289;28;20106;-29
2023/12/18 03:17:39;;;;;;;3.90;2.60;;;18.10;56.20;;;;;;5052196;28;20064;-29
2023/12/18 03:20:07;;;;;;;4.00;2.55;;;17.80;71.80;;;;;;5052226;28;20048;-25
2023/12/18 03:22:34;;;;;;;4.03;2.38;;;17.20;68.60;;;;;;5052339;28;20041;-25
2023/12/18 03:25:01;;;;;;;4.18;2.40;;;18.20;60.10;;;;;;5052062;28;20057;-25
2023/12/18 03:27:28;;;;;;;4.13;2.50;;;18.00;72.30;;;;;;5053267;28;20056;-25
2023/12/18 03:29:54;;;;;;;4.65;2.70;;;17.00;71.40;;;;;;5052288;28;20049;-24
2023/12/18 03:32:23;;;;;;;4.00;2.60;;;18.30;62.50;;;;;;5052042;28;20456;-25
2023/12/18 03:34:50;;;;;;;5.53;2.83;;;;;;;;;;5051730;28;20110;-27
2023/12/18 03:37:17;;;;;;;3.97;2.08;;;;;;;;;;5051586;28;20049;-25
2023/12/18 03:39:44;;;;;;;4.70;2.50;;;18.10;72.50;;;;;;5051938;28;20052;-27
2023/12/18 03:42:11;;;;;;;4.72;2.50;;;18.30;72.20;;;;;;5052376;28;20049;-27
2023/12/18 03:44:38;;;;;;;4.63;2.75;;;;;;;;;;5051660;28;20077;-27
2023/12/18 03:47:05;;;;;;;3.83;2.45;;;18.60;72.40;;;;;;5052050;28;20095;-30
2023/12/18 03:49:33;;;;;;;4.43;2.58;;;17.90;63.80;;;;;;5051799;28;20102;-30
2023/12/18 03:52:00;;;;;;;5.93;2.60;;;;;;;;;;5051616;28;20049;-30
2023/12/18 03:54:27;;;;;;;4.13;2.78;;;17.90;72.50;;;;;;5051926;28;20099;-27
2023/12/18 03:56:54;;;;;;;3.85;2.60;;;18.50;52.80;;;;;;5052088;28;20049;-25
2023/12/18 03:59:21;;;;;;;4.28;2.67;;;17.30;71.90;;;;;;5051616;28;20049;-24
2023/12/18 04:01:48;;;;;;;3.80;2.65;;;;;;;;;;5051290;28;20090;-27
2023/12/18 04:04:15;;;;;;;5.32;2.83;;;18.40;72.80;;;;;;5051765;28;20048;-25
2023/12/18 04:06:44;;;;;;;4.65;2.83;;;18.10;72.60;;;;;;5051430;28;20098;-25
2023/12/18 04:09:11;;;;;;;4.30;2.58;;;17.90;72.70;;;;;;5051508;28;20048;-27
2023/12/18 04:11:38;;;;;;;4.03;2.75;;;;;;;;;;5051834;28;20115;-26
2023/12/18 04:14:05;;;;;;;6.28;2.97;;;;;;;;;;5052084;28;20053;-24
2023/12/18 04:16:32;;;;;;;4.55;2.90;;;;;;;;;;5050996;28;20045;-26
2023/12/18 04:19:00;;;;;;;4.68;3.10;;;;;;;;;;5051419;28;20091;-24
2023/12/18 04:21:26;;;;;;;3.80;2.70;;;18.20;59.40;;;;;;5051431;28;20049;-25
2023/12/18 04:23:55;;;;;;;4.25;2.78;;;16.80;71.70;;;;;;5051694;28;20090;-24
2023/12/18 04:26:21;;;;;;;4.22;3.00;;;18.00;72.70;;;;;;5051262;28;20045;-27
2023/12/18 04:28:49;;;;;;;4.65;2.85;;;;;;;;;;5051744;28;20396;-27
2023/12/18 04:31:19;;;;;;;4.82;2.70;;;17.60;72.40;;;;;;5051656;28;20452;-29
2023/12/18 04:33:45;;;;;;;4.97;2.90;;;17.50;72.50;;;;;;5051324;28;20494;-26
2023/12/18 04:36:12;;;;;;;4.82;2.92;;;18.30;72.50;;;;;;5050629;28;20049;-27
2023/12/18 04:38:40;;;;;;;4.45;3.10;;;;;;;;;;5051525;28;20208;-25
2023/12/18 04:41:08;;;;;;;5.55;3.25;;;18.70;52.30;;;;;;5051328;28;20060;-25
2023/12/18 04:43:35;;;;;;;4.90;2.92;;;;;;;;;;5051475;28;20053;-25
2023/12/18 04:46:02;;;;;;;5.78;3.00;;;18.20;72.50;;;;;;5051216;28;20551;-31
2023/12/18 04:48:29;;;;;;;5.53;3.13;;;;;;;;;;5050777;28;20045;-28
2023/12/18 04:50:56;;;;;;;5.50;3.35;;;17.40;72.50;;;;;;5051087;28;20114;-25
2023/12/18 04:53:23;;;;;;;4.22;3.03;;;;;;;;;;5051271;28;20068;-26
2023/12/18 04:55:51;;;;;;;4.75;2.72;;;;;;;;;;5050962;28;20110;-25
2023/12/18 04:58:19;;;;;;;3.92;2.85;;;17.90;51.90;;;;;;5051333;28;20049;-27
2023/12/18 05:00:46;;;;;;;6.32;3.38;;;18.90;55.70;;;;;;5051147;28;20053;-27
2023/12/18 05:03:13;;;;;;;5.90;3.35;;;;;;;;;;5050911;28;20110;-30
2023/12/18 05:05:40;;;;;;;6.70;3.08;;;;;;;;;;5050938;28;20049;-29
2023/12/18 05:08:07;;;;;;;5.63;2.90;;;18.60;72.90;;;;;;5050457;28;20103;-29
2023/12/18 05:10:34;;;;;;;4.40;2.92;;;18.00;62.10;;;;;;5050923;28;20045;-27
2023/12/18 05:13:01;;;;;;;5.50;2.97;;;18.30;54.00;;;;;;5051295;28;20114;-26
2023/12/18 05:15:29;;;;;;;5.65;3.40;;;17.80;51.80;;;;;;5050835;28;20102;-26
2023/12/18 05:17:56;;;;;;;4.47;3.00;;;;;;;;;;5051307;28;20052;-27
2023/12/18 05:20:22;;;;;;;5.65;3.20;;;18.20;73.00;;;;;;5054892;28;20049;-28
2023/12/18 05:22:49;;;;;;;5.00;3.08;;;;;;;;;;5054762;28;20049;-25
2023/12/18 05:25:16;;;;;;;6.47;3.13;;;;;;;;;;5054241;28;20110;-27
2023/12/18 05:27:43;;;;;;;4.65;2.97;;;18.10;73.00;;;;;;5054574;28;20053;-25
2023/12/18 05:30:11;;;;;;;4.72;3.25;;;;;;;;;;5054612;28;20457;-28
2023/12/18 05:32:39;;;;;;;5.07;3.10;;;17.40;72.70;;;;;;5054455;28;20059;-25
2023/12/18 05:35:07;;;;;;;4.55;3.13;;;17.40;72.70;;;;;;5054134;28;20049;-25
2023/12/18 05:37:33;;;;;;;4.60;3.20;;;17.70;72.60;;;;;;5053875;28;20457;-25
2023/12/18 05:40:00;;;;;;;4.22;2.92;;;17.20;72.70;;;;;;5054143;28;20044;-25
2023/12/18 05:42:27;;;;;;;4.40;2.95;;;17.50;66.20;;;;;;5053983;28;20103;-30
2023/12/18 05:44:54;;;;;;;5.82;3.13;;;17.20;72.30;;;;;;5053900;28;20111;-30
2023/12/18 05:47:21;;;;;;;5.63;2.95;;;;;;;;;;5054342;28;20054;-27
2023/12/18 05:49:49;;;;;;;5.18;2.90;;;18.60;73.10;;;;;;5054400;28;20110;-27
2023/12/18 05:52:18;;;;;;;4.10;2.80;;;17.50;73.00;;;;;;5054165;28;20099;-25
2023/12/18 05:54:44;;;;;;;5.18;2.97;;;17.20;72.40;;;;;;5054155;28;20095;-24
2023/12/18 05:57:16;;;;;;;6.22;2.85;;;;;;;;;;5053599;28;20057;-28
2023/12/18 05:59:44;;;;;;;5.40;3.00;;;;;;;;;;5054265;28;20079;-26
2023/12/18 06:02:11;;;;;;;4.57;2.75;;;;;;;;;;5053731;28;20495;-24
2023/12/18 06:04:41;;;;;;;5.63;3.13;;;16.90;72.60;;;;;;5053900;28;20060;-24
2023/12/18 06:07:09;;;;;;;4.68;3.05;;;17.80;52.00;;;;;;5053733;28;20441;-28
2023/12/18 06:09:36;;;;;;;4.70;2.60;;;17.20;72.50;;;;;;5053914;28;20060;-25
2023/12/18 06:12:04;;;;;;;4.05;2.80;;;16.40;72.10;;;;;;5053647;28;20052;-24
2023/12/18 06:14:31;;;;;;;5.35;2.92;;;;;;;;;;5056105;28;20102;-27
2023/12/18 06:16:58;;;;;;;5.45;3.40;;;;;;;;;;5073734;28;20067;-25
2023/12/18 06:19:25;;;;;;;5.70;3.30;;;17.90;72.80;;;;;;5073632;28;20053;-24
2023/12/18 06:21:52;;;;;;;4.47;2.80;;;18.20;71.90;;;;;;5073351;28;20126;-24
2023/12/18 06:24:20;;;;;;;5.35;3.17;;;18.10;62.50;;;;;;5073729;28;20461;-27
2023/12/18 06:26:47;;;;;;;5.32;3.20;;;17.40;72.60;;;;;;5073243;28;20048;-27
2023/12/18 06:29:13;;;;;;;5.88;2.85;;;17.90;73.00;;;;;;5073817;28;20440;-31
2023/12/18 06:31:41;;;;;;;4.53;3.05;;;;;;;;;;5071444;28;20554;-24
2023/12/18 06:34:10;;;;;;;5.57;2.72;;;;;;;;;;5073481;28;20489;-30
2023/12/18 06:36:37;;;;;;;5.53;2.75;;;17.00;63.90;;;;;;5072224;28;20037;-25
2023/12/18 06:39:04;;;;;;;3.80;2.60;;;16.50;72.50;;;;;;5073243;28;20056;-25
2023/12/18 06:41:32;;;;;;;4.38;2.63;;;17.70;56.20;;;;;;5058849;28;20049;-26
2023/12/18 06:43:59;;;;;;;5.75;2.90;;;17.60;62.40;;;;;;5053122;28;20494;-25
2023/12/18 06:46:26;;;;;;;5.28;3.03;;;17.40;65.40;;;;;;5052695;28;20099;-32
2023/12/18 06:48:53;;;;;;;5.53;3.13;;;;;;;;;;5062402;28;20045;-29
2023/12/18 06:51:20;;;;;;;5.18;2.83;;;17.50;72.80;;;;;;5072685;28;20052;-25
2023/12/18 06:53:46;;;;;;;5.65;3.00;;;18.70;73.90;;;;;;5052986;28;20045;-23
2023/12/18 06:56:13;;;;;;;4.13;2.83;;;17.90;70.70;;;;;;5053008;28;20094;-27
2023/12/18 06:58:42;;;;;;;4.97;3.28;;;17.50;73.30;;;;;;5053023;28;20494;-30
2023/12/18 07:01:08;;;;;;;4.53;2.53;;;17.30;72.80;;;;;;5052629;28;20103;-31
2023/12/18 07:03:35;;;;;;;5.32;2.85;;;17.50;54.10;;;;;;5052877;28;20048;-28
2023/12/18 07:06:02;;;;;;;3.75;2.85;;;18.90;66.30;;;;;;5053451;28;20096;-26
2023/12/18 07:08:29;;;;;;;3.25;2.50;;;;;;;;;;5065902;28;20049;-24
2023/12/18 07:10:57;;;;;;;4.22;3.10;;;18.80;73.50;;;;;;5072378;28;20045;-25
2023/12/18 07:13:24;;;;;;;3.67;2.72;;;17.70;55.60;;;;;;5072787;28;20048;-26
2023/12/18 07:15:52;;;;;;;6.07;2.72;;;17.90;73.00;;;;;;5071856;28;20094;-25
2023/12/18 07:18:19;;;;;;;4.03;2.60;;;17.60;70.70;;;;;;5072508;28;20040;-25
2023/12/18 07:20:46;;;;;;;3.95;2.70;;;;;;;;;;5072317;28;20048;-27
2023/12/18 07:23:13;;;;;;;4.15;2.90;;;17.20;72.70;;;;;;5063915;28;20382;-23
2023/12/18 07:25:40;;;;;;;4.18;3.05;;;;;;;;;;5054172;28;20110;-28
2023/12/18 07:28:09;;;;;;;5.25;3.00;;;;;;;;;;5072242;28;20049;-31
2023/12/18 07:30:36;;;;;;;6.63;3.40;;;;;;;;;;5072352;28;20474;-25
2023/12/18 07:33:05;;;;;;;4.28;2.78;;;17.70;52.30;;;;;;5072005;28;20045;-26
2023/12/18 07:35:32;;;;;;;5.43;2.60;;;18.00;73.60;;;;;;5071775;28;20045;-27
2023/12/18 07:37:59;;;;;;;4.25;2.60;;;;;;;;;;5056032;28;20122;-26
2023/12/18 07:40:26;;;;;;;4.40;2.78;;;18.00;73.70;;;;;;5057610;28;20101;-25
2023/12/18 07:42:53;;;;;;;3.70;2.72;;;;;;;;;;5053159;28;20061;-27
2023/12/18 07:45:20;;;;;;;5.35;3.00;;;;;;;;;;5051715;28;20095;-28
2023/12/18 07:47:47;;;;;;;5.47;2.95;;;19.10;66.10;;;;;;5051785;28;20048;-26
2023/12/18 07:50:15;;;;;;;6.10;2.83;;;18.80;74.00;;;;;;5052293;28;20053;-27
2023/12/18 07:52:43;;;;;;;4.97;2.70;;;;;;;;;;5052066;28;20126;-27
2023/12/18 07:55:10;;;;;;;3.60;2.75;;;17.60;73.00;;;;;;5052744;28;20049;-29
2023/12/18 07:57:37;;;;;;;5.35;3.20;;;;;;;;;;5061277;28;20052;-27
2023/12/18 08:00:05;;;;;;;4.13;2.60;;;17.50;73.00;;;;;;5060842;28;20098;-29
2023/12/18 08:02:32;;;;;;;4.38;3.10;;;;;;;;;;5056386;28;20049;-25
2023/12/18 08:04:59;;;;;;;5.15;3.22;;;19.00;57.80;;;;;;5066045;28;20052;-24
2023/12/18 08:07:27;;;;;;;5.25;2.78;;;18.90;67.20;;;;;;5065321;28;20040;-28
2023/12/18 08:09:54;;;;;;;5.50;2.80;;;18.80;73.50;;;;;;5065942;28;20057;-27
2023/12/18 08:12:21;;;;;;;5.30;2.63;;;;;;;;;;5060974;28;20421;-29
2023/12/18 08:14:49;;;;;;;4.85;2.47;;;;;;;;;;5056962;28;20099;-31
2023/12/18 08:17:16;;;;;;;4.28;2.58;;;;;;;;;;5060545;28;20041;-25
2023/12/18 08:19:47;;;;;;;6.22;2.80;;;18.20;52.30;;;;;;5064379;28;20109;-25
2023/12/18 08:22:14;;;;;;;4.22;2.40;;;;;;;;;;5067691;28;20072;-26
2023/12/18 08:24:42;;;;;;;5.03;2.40;;;18.00;72.90;;;;;;5056251;28;20452;-27
2023/12/18 08:27:09;;;;;;;4.03;2.97;;;18.30;72.70;;;;;;5051370;28;20041;-31
2023/12/18 08:29:36;;;;;;;4.40;2.42;;;;;;;;;;5050575;28;20095;-26
2023/12/18 08:32:03;;;;;;;3.65;2.28;;;;;;;;;;5049663;28;20549;-25
2023/12/18 08:34:30;;;;;;;4.28;2.83;;;18.50;63.20;;;;;;5049447;28;20114;-27
2023/12/18 08:36:57;;;;;;;3.28;2.40;;;19.10;63.40;;;;;;5050803;28;20045;-27
2023/12/18 08:39:24;;;;;;;4.72;2.58;;;;;;;;;;5051194;28;20107;-27
2023/12/18 08:41:52;;;;;;;5.05;2.80;;;19.20;72.50;;;;;;5050848;28;20057;-24
2023/12/18 08:44:19;;;;;;;3.38;2.40;;;18.90;59.70;;;;;;5050867;28;20045;-25
2023/12/18 08:46:47;;;;;;;5.35;3.13;;;;;;;;;;5050312;28;20048;-25
2023/12/18 08:49:14;;;;;;;4.20;2.60;;;18.90;71.70;;;;;;5051575;28;20094;-25
2023/12/18 08:51:41;;;;;;;3.67;2.35;;;;;;;;;;5051163;28;20041;-25
2023/12/18 08:54:08;;;;;;;6.18;2.63;;;18.40;71.60;;;;;;5054161;28;20076;-26
2023/12/18 08:56:35;;;;;;;4.28;2.60;;;;;;;;;;5054827;28;20053;-28
2023/12/18 08:59:03;;;;;;;3.75;2.63;;;19.50;63.40;;;;;;5055613;28;20101;-24
2023/12/18 09:01:30;;;;;;;4.15;2.38;;;;;;;;;;5055320;28;20052;-24
2023/12/18 09:03:57;;;;;;;4.75;2.30;;;19.60;53.50;;;;;;5055064;28;20095;-29
2023/12/18 09:06:24;;;;;;;4.85;2.55;;;19.40;71.40;;;;;;5054549;28;20519;-31
2023/12/18 09:08:51;;;;;;;5.15;2.58;;;;;;;;;;5059799;28;20156;-27
2023/12/18 09:11:18;;;;;;;4.43;2.58;;;19.70;71.20;;;;;;5054834;28;20068;-25
2023/12/18 09:13:45;;;;;;;7.63;2.38;;;20.70;71.60;;;;;;5055233;28;20477;-30
2023/12/18 09:16:13;;;;;;;3.47;2.40;;;19.60;70.90;;;;;;5054923;28;20460;-30
2023/12/18 09:18:40;;;;;;;3.22;2.28;;;;;;;;;;5054855;28;20069;-27
2023/12/18 09:21:07;;;;;;;3.65;2.45;;;19.40;70.80;;;;;;5054798;28;20114;-25
2023/12/18 09:23:34;;;;;;;6.15;2.88;;;19.60;70.80;;;;;;5054844;28;20049;-26
2023/12/18 09:26:02;;;;;;;5.28;2.40;;;;;;;;;;5060308;28;20106;-26
2023/12/18 09:28:28;;;;;;;3.05;2.20;;;19.40;70.70;;;;;;5075075;28;20060;-30
2023/12/18 09:30:56;;;;;;;4.20;2.47;;;;;;;;;;5054639;28;20115;-28
2023/12/18 09:33:24;;;;;;;4.90;2.50;;;20.90;55.80;;;;;;5063511;28;20048;-25
2023/12/18 09:35:51;;;;;;;5.57;2.75;;;20.30;71.10;;;;;;5074249;28;20052;-24
2023/12/18 09:38:19;;;;;;;4.47;2.40;;;19.90;70.60;;;;;;5074824;28;20102;-24
2023/12/18 09:40:46;;;;;;;7.22;2.60;;;20.00;50.60;;;;;;5074605;28;20060;-26
2023/12/18 09:43:17;;;;;;;5.85;2.38;;;20.30;70.90;;;;;;5073861;28;20052;-24
2023/12/18 09:45:44;;;;;;;4.75;2.40;;;20.20;70.70;;;;;;5069026;28;20514;-29
2023/12/18 09:48:11;;;;;;;3.72;2.53;;;19.60;70.30;;;;;;5072087;28;20044;-29
2023/12/18 09:50:39;;;;;;;4.82;2.50;;;20.10;50.40;;;;;;5073060;28;20476;-26
2023/12/18 09:53:08;;;;;;;4.35;2.65;;;20.00;51.20;;;;;;5073166;28;20114;-26
2023/12/18 09:55:36;;;;;;;4.25;2.50;;;;;;;;;;5073175;28;20048;-29
2023/12/18 09:58:03;;;;;;;6.30;2.47;;;20.10;54.40;;;;;;5073015;28;20109;-26
2023/12/18 10:00:29;;;;;;;4.38;2.63;;;20.20;70.40;;;;;;5072635;28;20071;-25
2023/12/18 10:02:57;;;;;;;4.00;2.35;;;20.10;61.70;;;;;;5073046;28;20044;-25
2023/12/18 10:05:24;;;;;;;5.88;2.55;;;20.50;70.30;;;;;;5073103;28;20106;-26
2023/12/18 10:07:52;;;;;;;6.20;2.78;;;20.30;50.30;;;;;;5066106;28;20052;-28
2023/12/18 10:10:20;;;;;;;4.30;2.25;;;20.50;70.50;;;;;;5053743;28;20106;-23
2023/12/18 10:12:47;;;;;;;4.72;2.40;;;;;;;;;;5053855;28;20056;-28
2023/12/18 10:15:15;;;;;;;4.97;2.53;;;20.90;70.30;;;;;;5053715;28;20137;-32
2023/12/18 10:17:42;;;;;;;3.83;2.30;;;;;;;;;;5060844;28;20516;-25
2023/12/18 10:20:09;;;;;;;3.15;2.00;;;20.20;69.80;;;;;;5073770;28;20113;-24
2023/12/18 10:22:36;;;;;;;3.33;2.22;;;20.30;70.20;;;;;;5073765;28;20044;-31
2023/12/18 10:25:05;;;;;;;2.95;2.47;;;20.50;50.10;;;;;;5071760;28;20098;-27
2023/12/18 10:27:32;;;;;;;4.57;2.30;;;21.70;70.70;;;;;;5053272;28;20037;-28
2023/12/18 10:30:00;;;;;;;5.20;2.50;;;;;;;;;;5053708;28;20510;-27
2023/12/18 10:32:27;;;;;;;4.50;2.40;;;20.60;60.70;;;;;;5053332;28;20080;-29
2023/12/18 10:34:54;;;;;;;4.18;2.45;;;20.70;64.00;;;;;;5054512;28;20041;-23
2023/12/18 10:37:22;;;;;;;3.92;2.50;;;;;;;;;;5058253;28;20118;-27
2023/12/18 10:39:50;;;;;;;4.00;2.35;;;20.50;69.50;;;;;;5053503;28;20056;-25
2023/12/18 10:42:23;;;;;;;4.85;2.40;;;19.70;51.10;;;;;;5053251;28;20114;-25
2023/12/18 10:44:50;;;;;;;3.75;2.35;;;21.00;59.30;;;;;;5052267;28;20049;-28
2023/12/18 10:47:17;;;;;;;3.55;2.45;;;20.40;69.70;;;;;;5060297;28;20041;-28
2023/12/18 10:49:44;;;;;;;3.88;2.20;;;20.70;52.60;;;;;;5061313;28;20057;-30
2023/12/18 10:52:11;;;;;;;5.35;2.30;;;20.80;69.40;;;;;;5059828;28;20498;-31
2023/12/18 10:54:38;;;;;;;4.85;2.35;;;20.70;69.60;;;;;;5063680;28;20050;-32
2023/12/18 10:57:05;;;;;;;4.10;2.20;;;21.10;69.70;;;;;;5060918;28;20045;-27
2023/12/18 10:59:33;;;;;;;4.70;2.53;;;20.60;69.10;;;;;;5061550;28;20564;-30
2023/12/18 11:02:00;;;;;;;4.63;2.38;;;;;;;;;;5059342;28;20475;-28
2023/12/18 11:04:27;;;;;;;4.45;2.28;;;19.70;69.00;;;;;;5053291;28;20053;-32
2023/12/18 11:06:54;;;;;;;4.57;2.33;;;20.90;69.70;;;;;;5063166;28;20053;-30
2023/12/18 11:09:21;;;;;;;4.35;2.50;;;20.90;67.20;;;;;;5060381;28;20044;-27
2023/12/18 11:11:48;;;;;;;4.60;2.50;;;20.80;69.30;;;;;;5053524;28;20045;-27
2023/12/18 11:14:20;;;;;;;3.92;2.75;;;20.80;49.70;;;;;;5052748;28;20064;-27
2023/12/18 11:16:58;;;;;;;5.50;2.42;;;20.90;49.70;;;;;;5059197;28;20052;-27
2023/12/18 11:19:27;;;;;;;4.25;2.50;;;20.80;49.70;;;;;;5070752;28;20052;-26
2023/12/18 11:21:55;;;;;;;5.45;2.60;;;21.20;69.80;;;;;;5065337;28;20061;-29
2023/12/18 11:24:21;;;;;;;4.32;2.70;;;20.70;65.90;;;;;;5054989;28;20075;-26
2023/12/18 11:26:48;;;;;;;3.65;2.20;;;21.60;69.60;;;;;;5069604;28;20464;-25
2023/12/18 11:29:39;;;;;;;4.25;2.58;;;20.90;49.70;;;;;;5065835;28;20498;-28
2023/12/18 11:32:08;;;;;;;3.95;2.50;;;20.60;69.30;;;;;;5059744;28;20047;-29
2023/12/18 11:34:35;;;;;;;3.55;2.38;;;20.90;49.70;;;;;;5056176;28;20060;-32
2023/12/18 11:37:02;;;;;;;4.75;2.50;;;20.30;61.10;;;;;;5061384;28;20040;-30
2023/12/18 11:39:37;;;;;;;3.70;2.65;;;20.90;49.60;;;;;;5059047;28;20079;-28
2023/12/18 11:42:04;;;;;;;4.32;2.60;;;20.40;64.40;;;;;;5061231;28;20052;-27
2023/12/18 11:44:31;;;;;;;4.80;2.42;;;21.20;69.70;;;;;;5071964;28;20040;-31
2023/12/18 11:46:58;;;;;;;3.90;2.50;;;;;;;;;;5071937;28;20106;-27
2023/12/18 11:49:25;;;;;;;4.25;2.95;;;21.40;69.40;;;;;;5072132;28;20048;-29
2023/12/18 11:51:52;;;;;;;3.88;2.50;;;20.00;60.90;;;;;;5072041;28;20078;-31
2023/12/18 11:54:24;;;;;;;4.25;2.40;;;21.80;70.00;;;;;;5058343;28;20162;-31
2023/12/18 11:56:51;;;;;;;3.90;2.40;;;19.90;68.50;;;;;;5051751;28;20048;-27
2023/12/18 11:59:19;;;;;;;5.80;2.78;;;;;;;;;;5052172;28;20494;-26
2023/12/18 12:01:46;;;;;;;5.38;2.70;;;20.80;49.70;;;;;;5051856;28;20091;-26
2023/12/18 12:04:15;;;;;;;4.63;2.78;;;20.50;69.00;;;;;;5051861;28;20478;-26
2023/12/18 12:06:43;;;;;;;4.45;2.80;;;20.40;68.90;;;;;;5051400;28;20486;-31
2023/12/18 12:09:10;;;;;;;4.15;2.40;;;20.80;69.20;;;;;;5070660;28;20048;-25
2023/12/18 12:11:37;;;;;;;4.30;2.60;;;21.30;69.90;;;;;;5071270;28;20048;-25
2023/12/18 12:14:04;;;;;;;4.80;2.70;;;21.10;69.70;;;;;;5071710;28;20117;-25
2023/12/18 12:16:31;;;;;;;4.82;2.75;;;20.30;50.00;;;;;;5071378;28;20394;-27
2023/12/18 12:18:59;;;;;;;5.22;2.90;;;;;;;;;;5057982;28;20112;-27
2023/12/18 12:21:26;;;;;;;6.95;3.00;;;20.50;69.30;;;;;;5051792;28;20060;-25
2023/12/18 12:23:54;;;;;;;4.82;2.90;;;20.60;49.80;;;;;;5052078;28;20472;-27
2023/12/18 12:26:22;;;;;;;5.05;2.80;;;20.50;49.80;;;;;;5052502;28;20049;-27
2023/12/18 12:28:49;;;;;;;5.47;2.72;;;;;;;;;;5075906;28;20080;-27
2023/12/18 12:31:17;;;;;;;5.63;3.33;;;21.70;56.20;;;;;;5067459;28;20449;-28
2023/12/18 12:33:44;;;;;;;6.50;3.20;;;20.40;69.30;;;;;;5064653;28;20076;-27
2023/12/18 12:36:12;;;;;;;4.50;3.08;;;20.40;54.20;;;;;;5063747;28;20098;-26
2023/12/18 12:38:40;;;;;;;6.93;3.08;;;19.80;54.30;;;;;;5063445;28;20086;-26
2023/12/18 12:41:08;;;;;;;5.10;3.20;;;20.20;69.50;;;;;;5071220;28;20048;-24
2023/12/18 12:43:35;;;;;;;5.57;2.95;;;;;;;;;;5063912;28;20048;-25
2023/12/18 12:46:02;;;;;;;6.63;3.22;;;20.10;69.90;;;;;;5060994;28;20079;-24
2023/12/18 12:48:29;;;;;;;6.50;3.60;;;21.10;70.10;;;;;;5063956;28;20040;-25
2023/12/18 12:50:57;;;;;;;5.70;3.28;;;19.40;57.40;;;;;;5066304;28;20103;-24
2023/12/18 12:53:24;;;;;;;7.90;3.55;;;;;;;;;;5057189;28;20091;-24
2023/12/18 12:55:53;;;;;;;5.72;3.10;;;20.30;70.00;;;;;;5068757;28;20052;-30
2023/12/18 12:58:22;;;;;;;5.53;3.20;;;19.90;60.20;;;;;;5061565;28;20060;-27
2023/12/18 13:00:49;;;;;;;5.38;3.20;;;19.70;70.10;;;;;;5055357;28;20088;-28
2023/12/18 13:03:16;;;;;;;4.68;3.10;;;;;;;;;;5071178;28;20048;-31
2023/12/18 13:05:43;;;;;;;5.93;3.22;;;19.90;57.00;;;;;;5067500;28;20091;-27
2023/12/18 13:08:11;;;;;;;6.40;3.28;;;20.70;70.50;;;;;;5046394;28;20045;-28
2023/12/18 13:10:38;;;;;;;7.07;3.97;;;;;;;;;;5067108;28;20126;-26
2023/12/18 13:13:06;;;;;;;5.60;3.28;;;19.80;61.80;;;;;;5074917;28;20100;-26
2023/12/18 13:15:35;;;;;;;7.25;3.20;;;20.60;70.70;;;;;;5057479;28;20076;-25